• Join FlightAware (Why Join?)
  • Login
  • US Flag 
Rudolph Flight #1: Scheduled 
09:18PM EST


 

Airport Tracker/Info


-or-


 

Live Flight TrackerFlight Track Log ✈ TAM3420 ✈ 26-Apr-2013 ✈ SBBE / BEL - SBSN / STM

Flight Track Log - Related Links

Times and Time Zones

All times are in EDT time to prevent confusion due to time zone crossing. See the TAM3420 flight status page for this flight to view local times or setup timezone preferences in your user account.

Time Position Orientation Groundspeed Altitude Reporting Facility
EDT Latitude Longitude Course Direction KTS MPH feet Rate Location/Type
01:15PM -1.5380 -49.4286 261° West  Level Estimated
01:16PM -1.5524 -49.5151 261° West  Level Estimated
01:17PM -1.5668 -49.6017 261° West  Level Estimated
01:18PM -1.5812 -49.6883 261° West  Level Estimated
01:19PM -1.5956 -49.7749 261° West  Level Estimated
01:20PM -1.6100 -49.8615 261° West  Level Estimated
01:21PM -1.6244 -49.9480 261° West  Level Estimated
01:22PM -1.6388 -50.0346 261° West  Level Estimated
01:23PM -1.6532 -50.1212 261° West  Level Estimated
01:24PM -1.6675 -50.2078 261° West  Level Estimated
01:25PM -1.6819 -50.2944 261° West  Level Estimated
01:26PM -1.6963 -50.3810 261° West  Level Estimated
01:27PM -1.7107 -50.4676 261° West  Level Estimated
01:28PM -1.7250 -50.5541 261° West  Level Estimated
01:29PM -1.7394 -50.6407 261° West  Level Estimated
01:30PM -1.7537 -50.7273 261° West  Level Estimated
01:31PM -1.7681 -50.8139 261° West  Level Estimated
01:32PM -1.7824 -50.9005 261° West  Level Estimated
01:32PM -1.9010 -51.3460 261° West 461 531 36,100  Level FlightAware
01:33PM -1.7968 -50.9871 261° West  Level Estimated
01:33PM -1.9130 -51.4580 264° West 461 531 36,100  Level FlightAware
01:33PM -1.9220 -51.5430 264° West 461 531 36,100 -120 Level FlightAware
01:34PM -1.9330 -51.6430 264° West 456 525 36,000 -120 Descending FlightAware
01:35PM -1.9400 -51.7090 264° West 456 525 36,000  Level FlightAware
01:36PM -1.9560 -51.8460 263° West 448 516 36,000  Level FlightAware
01:36PM -1.9640 -51.9260 264° West 448 516 36,000  Level FlightAware
01:37PM -1.9720 -51.9960 263° West 448 516 36,000  Level FlightAware
01:38PM -1.9790 -52.0660 264° West 448 516 36,000  Level FlightAware
01:39PM -1.9880 -52.1540 264° West 448 516 36,000  Level FlightAware
01:39PM -1.9960 -52.2240 263° West 448 516 36,000  Level FlightAware
01:40PM -2.0030 -52.2940 264° West 448 516 36,000  Level FlightAware
01:41PM -2.0100 -52.3640 264° West 448 516 36,000  Level FlightAware
01:41PM -2.0180 -52.4350 264° West 448 516 36,000  Level FlightAware
01:42PM -2.0270 -52.5220 264° West 448 516 36,000  Level FlightAware
01:43PM -2.0340 -52.5920 264° West 448 516 36,000  Level FlightAware
01:43PM -2.0420 -52.6620 263° West 448 516 36,000  Level FlightAware
01:44PM -2.0490 -52.7330 264° West 448 516 36,000  Level FlightAware
01:45PM -2.0560 -52.8030 264° West 448 516 36,000  Level FlightAware
01:46PM -2.0650 -52.8900 264° West 448 516 36,000  Level FlightAware
01:48PM -2.0956 -53.0525 259° West  Level Estimated
01:49PM -2.1119 -53.1388 259° West  Level Estimated
01:50PM -2.1281 -53.2250 259° West  Level Estimated
01:51PM -2.1444 -53.3113 259° West  Level Estimated
01:52PM -2.1606 -53.3976 259° West  Level Estimated
01:53PM -2.1768 -53.4839 259° West  Level Estimated
01:54PM -2.1931 -53.5702 259° West  Level Estimated
01:55PM -2.2093 -53.6564 259° West  Level Estimated
01:56PM -2.2255 -53.7427 259° West  Level Estimated
01:57PM -2.2417 -53.8290 259° West  Level Estimated
01:58PM -2.2579 -53.9153 259° West  Level Estimated
01:59PM -2.2741 -54.0016 259° West  Level Estimated
02:00PM -2.2903 -54.0879 259° West  Level Estimated
02:01PM -2.3065 -54.1742 259° West  Level Estimated
02:02PM -2.3227 -54.2605 259° West  Level Estimated
02:03PM -2.3389 -54.3468 259° West  Level Estimated
02:04PM -2.3551 -54.4331 259° West  Level Estimated
02:05PM -2.3712 -54.5194 259° West  Level Estimated
02:06PM -2.3874 -54.6057 259° West  Level Estimated
02:07PM -2.4036 -54.6920 259° West  Level Estimated
02:08PM -2.4197 -54.7784 259° West  Level Estimated
02:09PM -2.4224 -54.7928 259° West  Level Estimated
02:10PM -2.4224 -54.7928 135° Southeast  Level Estimated
02:11PM -2.4224 -54.7928 135° Southeast  Level Estimated
02:12PM -2.4224 -54.7928 135° Southeast  Level Estimated
02:13PM -2.4224 -54.7928 135° Southeast  Level Estimated
02:14PM -2.4224 -54.7928 135° Southeast  Level Estimated
02:15PM -2.4224 -54.7928 135° Southeast  Level Estimated
02:16PM -2.4224 -54.7928 135° Southeast  Level Estimated
02:17PM -2.4224 -54.7928 135° Southeast  Level Estimated
02:18PM -2.4224 -54.7928 135° Southeast  Level Estimated
02:19PM -2.4224 -54.7928 135° Southeast  Level Estimated
02:20PM -2.4224 -54.7928 135° Southeast  Level Estimated
02:21PM -2.4224 -54.7928 135° Southeast  Level Estimated
02:22PM -2.4224 -54.7928 135° Southeast  Level Estimated
02:23PM -2.4224 -54.7928 135° Southeast  Level Estimated
02:24PM -2.4224 -54.7928 135° Southeast  Level Estimated
02:25PM -2.4224 -54.7928 135° Southeast  Level Estimated
02:26PM -2.4224 -54.7928 135° Southeast  Level Estimated
02:27PM -2.4224 -54.7928 135° Southeast  Level Estimated
02:28PM -2.4224 -54.7928 135° Southeast  Level Estimated
02:29PM -2.4224 -54.7928 135° Southeast  Level Estimated
02:30PM -2.4224 -54.7928 135° Southeast  Level Estimated
02:31PM -2.4224 -54.7928 135° Southeast  Level Estimated
02:32PM -2.4224 -54.7928 135° Southeast  Level Estimated
02:33PM -2.4224 -54.7928 135° Southeast  Level Estimated